Time;durP1;ratioP1;P1;durP2;ratioP2;P2;SDS_P1;SDS_P2;PMS_P1;PMS_P2;Temp;Humidity;BMP_temperature;BMP_pressure;BME280_temperature;BME280_humidity;BME280_pressure;Samples;Min_cycle;Max_cycle;Signal;HPM_P1;HPM_P2
2023/08/30 00:00:26;;;;;;;1.85;1.70;;;21.40;63.60;;;;;;5015554;28;20212;-76
2023/08/30 00:02:53;;;;;;;2.28;1.80;;;21.40;63.60;;;;;;5014981;28;20200;-77
2023/08/30 00:05:20;;;;;;;2.05;1.90;;;21.40;63.60;;;;;;5015136;28;20259;-77
2023/08/30 00:07:48;;;;;;;1.88;1.77;;;21.40;63.60;;;;;;5015802;28;20215;-77
2023/08/30 00:10:15;;;;;;;1.70;1.60;;;21.40;63.60;;;;;;5017831;28;20724;-77
2023/08/30 00:12:42;;;;;;;1.90;1.80;;;21.40;63.60;;;;;;5020576;28;20209;-77
2023/08/30 00:15:11;;;;;;;1.80;1.70;;;21.40;63.60;;;;;;5020486;28;20201;-77
2023/08/30 00:17:38;;;;;;;1.90;1.80;;;21.40;63.70;;;;;;5016122;28;20254;-77
2023/08/30 00:20:08;;;;;;;1.80;1.70;;;21.40;63.70;;;;;;5014552;28;20188;-77
2023/08/30 00:22:36;;;;;;;2.53;1.73;;;21.40;63.70;;;;;;5015061;28;20247;-77
2023/08/30 00:25:04;;;;;;;1.60;1.50;;;21.40;63.70;;;;;;5014541;28;20266;-77
2023/08/30 00:27:31;;;;;;;1.70;1.60;;;21.30;63.60;;;;;;5014786;28;20205;-77
2023/08/30 00:29:58;;;;;;;1.88;1.77;;;21.30;63.60;;;;;;4997813;28;20200;-77
2023/08/30 00:32:26;;;;;;;2.58;1.95;;;21.30;63.60;;;;;;5014515;28;20232;-77
2023/08/30 00:34:54;;;;;;;1.70;1.60;;;21.30;63.60;;;;;;5014217;28;20232;-77
2023/08/30 00:37:20;;;;;;;1.80;1.70;;;21.30;63.60;;;;;;5014408;28;20223;-77
2023/08/30 00:39:48;;;;;;;1.73;1.63;;;21.30;63.60;;;;;;5014531;28;20201;-77
2023/08/30 00:42:15;;;;;;;1.70;1.60;;;21.30;63.60;;;;;;5014803;28;20631;-77
2023/08/30 00:44:42;;;;;;;1.95;1.75;;;21.30;63.60;;;;;;5014481;28;20221;-77
2023/08/30 00:47:09;;;;;;;2.15;1.63;;;21.30;63.60;;;;;;5013846;28;20290;-77
2023/08/30 00:49:38;;;;;;;2.10;2.00;;;21.30;63.60;;;;;;4997648;28;20189;-77
2023/08/30 00:52:07;;;;;;;1.80;1.70;;;21.30;63.60;;;;;;5015149;28;20628;-77
2023/08/30 00:54:34;;;;;;;1.75;1.65;;;21.30;63.60;;;;;;5013994;28;20188;-77
2023/08/30 00:57:02;;;;;;;1.70;1.60;;;21.30;63.60;;;;;;5013802;28;20200;-77
2023/08/30 00:59:29;;;;;;;1.90;1.80;;;21.30;63.60;;;;;;5013609;28;20196;-77
2023/08/30 01:01:56;;;;;;;1.70;1.58;;;21.30;63.60;;;;;;4997439;28;20248;-77
2023/08/30 01:04:23;;;;;;;1.63;1.52;;;21.30;63.60;;;;;;5013652;28;20296;-77
2023/08/30 01:06:52;;;;;;;1.70;1.60;;;21.30;63.60;;;;;;5013489;28;20201;-77
2023/08/30 01:09:18;;;;;;;1.75;1.65;;;21.30;63.70;;;;;;5013356;28;20251;-77
2023/08/30 01:11:50;;;;;;;1.67;1.58;;;21.30;63.60;;;;;;5016014;28;20833;-77
2023/08/30 01:14:19;;;;;;;1.70;1.60;;;21.30;63.70;;;;;;5016071;28;20196;-77
2023/08/30 01:16:46;;;;;;;1.80;1.70;;;21.30;63.60;;;;;;5014788;28;20246;-77
2023/08/30 01:19:24;;;;;;;1.77;1.67;;;21.30;63.70;;;;;;5013309;28;20250;-77
2023/08/30 01:21:56;;;;;;;1.80;1.70;;;21.20;63.60;;;;;;5014732;28;20219;-78
2023/08/30 01:24:27;;;;;;;1.77;1.67;;;21.20;63.60;;;;;;5013939;28;20702;-78
2023/08/30 01:27:12;;;;;;;1.40;1.30;;;21.30;63.70;;;;;;5013656;28;20193;-78
2023/08/30 01:29:41;;;;;;;1.73;1.63;;;21.20;63.70;;;;;;5013594;28;20225;-76
2023/08/30 01:32:09;;;;;;;1.60;1.50;;;21.20;63.80;;;;;;5013428;28;20220;-77
2023/08/30 01:34:36;;;;;;;1.58;1.48;;;21.20;63.80;;;;;;5013319;28;20193;-77
2023/08/30 01:37:03;;;;;;;1.83;1.73;;;21.20;63.80;;;;;;5013791;28;20598;-77
2023/08/30 01:39:30;;;;;;;1.70;1.60;;;21.20;63.90;;;;;;5012887;28;20231;-77
2023/08/30 01:41:58;;;;;;;1.70;1.60;;;21.20;63.90;;;;;;5013227;28;20292;-77
2023/08/30 01:44:27;;;;;;;1.75;1.60;;;21.20;64.70;;;;;;4996931;28;20283;-76
2023/08/30 01:46:55;;;;;;;1.50;1.40;;;21.20;64.00;;;;;;5012829;28;20232;-77
2023/08/30 01:49:22;;;;;;;1.73;1.63;;;21.20;64.10;;;;;;5013108;28;20243;-77
2023/08/30 01:51:49;;;;;;;1.70;1.60;;;21.20;64.10;;;;;;5012990;28;20248;-77
2023/08/30 01:54:18;;;;;;;1.80;1.70;;;21.10;64.00;;;;;;5013438;28;20239;-77
2023/08/30 01:56:45;;;;;;;1.40;1.30;;;21.20;64.10;;;;;;5014475;28;20189;-77
2023/08/30 01:59:12;;;;;;;1.50;1.40;;;21.10;64.00;;;;;;5012398;28;20197;-77
2023/08/30 02:01:40;;;;;;;1.80;1.70;;;21.10;64.00;;;;;;5012510;28;20216;-77
2023/08/30 02:04:08;;;;;;;1.45;1.35;;;21.10;64.00;;;;;;5012781;28;20660;-77
2023/08/30 02:06:40;;;;;;;1.40;1.30;;;21.10;64.00;;;;;;5012412;28;20274;-77
2023/08/30 02:09:11;;;;;;;1.67;1.58;;;21.10;64.00;;;;;;4997034;28;20201;-77
2023/08/30 02:11:38;;;;;;;1.58;1.48;;;21.10;64.00;;;;;;5012432;28;20750;-77
2023/08/30 02:14:07;;;;;;;2.13;1.73;;;21.10;64.00;;;;;;4996229;28;20197;-77
2023/08/30 02:16:34;;;;;;;1.60;1.50;;;21.10;64.10;;;;;;5012445;28;20197;-77
2023/08/30 02:19:03;;;;;;;1.35;1.30;;;21.10;64.10;;;;;;5012494;28;20240;-77
2023/08/30 02:21:30;;;;;;;2.03;1.30;;;21.10;64.10;;;;;;5015195;28;20221;-77
2023/08/30 02:23:57;;;;;;;1.60;1.50;;;21.10;64.10;;;;;;5016983;28;20196;-77
2023/08/30 02:26:25;;;;;;;1.60;1.50;;;21.10;64.20;;;;;;5015757;28;20244;-77
2023/08/30 02:28:52;;;;;;;2.60;1.50;;;21.00;64.10;;;;;;5015893;28;20196;-77
2023/08/30 02:31:19;;;;;;;1.55;1.45;;;21.10;64.20;;;;;;5016218;28;20220;-77
2023/08/30 02:33:46;;;;;;;1.92;1.52;;;21.00;64.10;;;;;;5000016;28;20192;-77
2023/08/30 02:36:15;;;;;;;1.58;1.48;;;21.00;64.10;;;;;;5015517;28;20201;-77
2023/08/30 02:38:43;;;;;;;1.75;1.60;;;21.00;64.10;;;;;;5015821;28;20559;-77
2023/08/30 02:41:10;;;;;;;1.73;1.45;;;21.00;64.10;;;;;;5015469;28;20221;-77
2023/08/30 02:43:37;;;;;;;1.65;1.55;;;21.00;64.10;;;;;;5016670;28;20247;-77
2023/08/30 02:46:05;;;;;;;1.90;1.80;;;21.00;63.90;;;;;;5015582;28;20275;-77
2023/08/30 02:48:33;;;;;;;1.50;1.40;;;21.00;64.10;;;;;;5016733;28;20201;-77
2023/08/30 02:51:00;;;;;;;1.60;1.50;;;21.00;64.00;;;;;;4999994;28;20563;-77
2023/08/30 02:53:29;;;;;;;2.65;1.55;;;21.00;63.90;;;;;;5016521;28;20259;-77
2023/08/30 02:55:56;;;;;;;1.50;1.40;;;21.00;64.00;;;;;;5015701;28;20192;-77
2023/08/30 02:58:23;;;;;;;1.67;1.58;;;21.00;63.80;;;;;;5015297;28;20618;-77
2023/08/30 03:00:56;;;;;;;1.60;1.50;;;21.00;63.80;;;;;;5016647;28;20217;-77
2023/08/30 03:03:23;;;;;;;1.30;1.20;;;21.00;63.80;;;;;;5015362;28;20207;-77
2023/08/30 03:05:51;;;;;;;1.27;1.27;;;21.00;63.80;;;;;;5014901;28;20236;-77
2023/08/30 03:08:18;;;;;;;1.50;1.40;;;21.00;63.80;;;;;;5014885;28;20205;-77
2023/08/30 03:10:46;;;;;;;1.50;1.40;;;21.00;64.00;;;;;;5014818;28;20251;-77
2023/08/30 03:13:14;;;;;;;1.50;1.40;;;21.00;64.00;;;;;;5015970;28;20280;-77
2023/08/30 03:15:41;;;;;;;1.70;1.60;;;21.00;64.00;;;;;;4999676;28;20193;-77
2023/08/30 03:18:08;;;;;;;1.50;1.40;;;21.00;64.00;;;;;;5014916;28;20251;-77
2023/08/30 03:20:36;;;;;;;1.48;1.40;;;21.10;64.00;;;;;;5014552;28;20221;-77
2023/08/30 03:23:03;;;;;;;1.60;1.50;;;21.10;63.90;;;;;;5014626;28;20201;-77
2023/08/30 03:25:32;;;;;;;1.30;1.30;;;21.10;63.70;;;;;;5014921;28;20304;-77
2023/08/30 03:28:01;;;;;;;1.60;1.50;;;21.10;63.60;;;;;;5015239;28;20197;-77
2023/08/30 03:30:30;;;;;;;1.33;1.33;;;21.20;63.70;;;;;;5014200;28;20220;-77
2023/08/30 03:32:57;;;;;;;1.20;1.20;;;21.20;63.60;;;;;;5014289;28;20197;-77
2023/08/30 03:35:24;;;;;;;1.27;1.27;;;21.20;63.60;;;;;;5014540;28;20196;-77
2023/08/30 03:37:51;;;;;;;1.30;1.20;;;21.20;63.50;;;;;;5014386;28;20197;-77
2023/08/30 03:40:19;;;;;;;1.50;1.40;;;21.20;63.40;;;;;;5014188;28;20259;-77
2023/08/30 03:42:46;;;;;;;1.30;1.30;;;21.20;63.30;;;;;;5014785;28;20243;-77
2023/08/30 03:45:14;;;;;;;1.50;1.40;;;21.20;63.20;;;;;;5014617;28;20775;-77
2023/08/30 03:47:41;;;;;;;1.77;1.40;;;21.30;63.20;;;;;;4998232;28;20674;-77
2023/08/30 03:50:09;;;;;;;1.40;1.33;;;21.30;63.10;;;;;;5014196;28;20258;-77
2023/08/30 03:52:36;;;;;;;1.42;1.35;;;21.30;63.10;;;;;;4997928;28;20275;-77
2023/08/30 03:55:04;;;;;;;1.52;1.42;;;21.30;63.00;;;;;;5014099;28;20201;-77
2023/08/30 03:57:31;;;;;;;1.77;1.33;;;21.30;63.00;;;;;;5013925;28;20606;-77
2023/08/30 03:59:58;;;;;;;2.03;1.30;;;21.30;62.90;;;;;;5014080;28;20204;-77
2023/08/30 04:02:27;;;;;;;1.13;1.10;;;21.30;62.80;;;;;;5014121;28;20263;-77
2023/08/30 04:04:54;;;;;;;1.27;1.27;;;21.30;62.80;;;;;;5013800;28;20244;-77
2023/08/30 04:07:21;;;;;;;1.60;1.50;;;21.30;62.80;;;;;;5081412;22;20234;-80
2023/08/30 04:09:49;;;;;;;1.20;1.20;;;21.30;62.90;;;;;;5034496;28;20268;-80
2023/08/30 04:12:16;;;;;;;1.40;1.30;;;21.30;62.70;;;;;;5034933;28;20220;-80
2023/08/30 04:14:43;;;;;;;1.30;1.30;;;21.30;62.70;;;;;;5036733;28;20232;-80
2023/08/30 04:17:10;;;;;;;1.33;1.30;;;21.30;62.70;;;;;;5036724;28;20288;-80
2023/08/30 04:19:38;;;;;;;1.40;1.30;;;21.40;62.80;;;;;;5036652;28;20266;-81
2023/08/30 04:22:09;;;;;;;1.10;1.10;;;21.30;62.60;;;;;;5037864;28;20721;-83
2023/08/30 04:24:36;;;;;;;2.08;1.40;;;21.40;62.70;;;;;;5038843;28;20216;-80
2023/08/30 04:27:03;;;;;;;1.45;1.35;;;21.40;62.60;;;;;;5037489;28;20282;-81
2023/08/30 04:29:30;;;;;;;1.45;1.38;;;21.30;62.40;;;;;;5037283;28;20566;-81
2023/08/30 04:31:57;;;;;;;3.30;3.00;;;21.30;62.30;;;;;;5037781;28;20245;-82
2023/08/30 04:34:25;;;;;;;2.50;1.90;;;21.40;62.80;;;;;;5036993;28;20204;-82
2023/08/30 04:36:53;;;;;;;1.85;1.60;;;21.30;62.60;;;;;;5037704;28;20204;-82
2023/08/30 04:39:20;;;;;;;1.55;1.45;;;21.30;62.20;;;;;;5037215;28;20200;-82
2023/08/30 04:42:09;;;;;;;1.60;1.50;;;21.30;62.10;;;;;;5032263;28;20263;-82
2023/08/30 04:44:36;;;;;;;1.60;1.50;;;21.30;62.40;;;;;;5033490;28;20200;-82
2023/08/30 04:47:04;;;;;;;1.50;1.40;;;21.30;62.30;;;;;;5033567;28;20228;-82
2023/08/30 04:49:31;;;;;;;1.80;1.48;;;21.30;62.50;;;;;;5035010;28;20192;-82
2023/08/30 04:52:00;;;;;;;1.52;1.40;;;21.30;62.50;;;;;;5037146;28;20216;-82
2023/08/30 04:54:27;;;;;;;1.60;1.50;;;21.30;62.50;;;;;;5040998;28;20203;-81
2023/08/30 04:56:54;;;;;;;2.85;1.40;;;21.30;62.40;;;;;;5034213;28;20196;-81
2023/08/30 04:59:21;;;;;;;1.58;1.48;;;21.30;62.50;;;;;;5036271;28;20196;-81
2023/08/30 05:01:49;;;;;;;2.92;1.50;;;21.30;62.70;;;;;;5034399;28;20678;-82
2023/08/30 05:04:18;;;;;;;1.48;1.25;;;21.30;62.80;;;;;;5034913;28;20196;-82
2023/08/30 05:06:45;;;;;;;1.58;1.48;;;21.30;63.00;;;;;;5034514;28;20216;-82
2023/08/30 05:09:15;;;;;;;1.50;1.40;;;21.30;63.10;;;;;;5033654;28;20202;-82
2023/08/30 05:11:42;;;;;;;1.70;1.60;;;21.30;63.40;;;;;;5034154;28;20227;-82
2023/08/30 05:14:12;;;;;;;1.30;1.30;;;21.20;63.10;;;;;;5035119;28;20200;-81
2023/08/30 05:16:40;;;;;;;2.78;2.00;;;21.30;63.50;;;;;;5033899;28;20188;-83
2023/08/30 05:19:08;;;;;;;2.28;2.05;;;21.30;62.10;;;;;;5033624;28;20199;-83
2023/08/30 05:21:36;;;;;;;2.05;1.95;;;21.30;61.30;;;;;;5033463;28;20211;-83
2023/08/30 05:24:05;;;;;;;2.10;1.92;;;21.20;60.80;;;;;;5036189;28;20693;-82
2023/08/30 05:26:34;;;;;;;2.10;2.00;;;21.20;60.60;;;;;;5036058;28;20250;-82
2023/08/30 05:29:01;;;;;;;2.95;2.20;;;21.20;60.30;;;;;;5036946;28;20200;-83
2023/08/30 05:31:28;;;;;;;2.05;1.95;;;21.20;60.10;;;;;;5035754;28;20220;-82
2023/08/30 05:34:04;;;;;;;2.05;1.77;;;21.20;60.10;;;;;;5036730;28;20188;-83
2023/08/30 05:36:31;;;;;;;2.47;1.92;;;21.20;60.00;;;;;;5037954;28;20195;-83
2023/08/30 05:39:12;;;;;;;2.05;1.90;;;21.20;60.00;;;;;;5036647;28;20196;-83
2023/08/30 05:41:47;;;;;;;2.88;2.10;;;21.20;59.90;;;;;;5035913;28;20691;-82
2023/08/30 05:44:15;;;;;;;1.73;1.63;;;21.20;59.80;;;;;;5035527;28;20287;-82
2023/08/30 05:46:41;;;;;;;1.60;1.50;;;21.20;60.60;;;;;;5035650;28;20216;-83
2023/08/30 05:49:09;;;;;;;2.85;1.50;;;21.20;60.50;;;;;;5033413;28;20201;-83
2023/08/30 05:51:36;;;;;;;1.55;1.40;;;21.20;60.60;;;;;;5016544;28;20224;-83
2023/08/30 05:54:03;;;;;;;1.58;1.30;;;21.20;60.70;;;;;;5033895;28;20226;-83
2023/08/30 05:56:30;;;;;;;1.40;1.30;;;21.20;60.70;;;;;;5037090;28;20590;-83
2023/08/30 05:58:59;;;;;;;1.50;1.40;;;21.10;60.70;;;;;;5036909;28;20685;-82
2023/08/30 06:01:26;;;;;;;1.60;1.35;;;21.20;60.80;;;;;;5036485;28;20302;-84
2023/08/30 06:03:54;;;;;;;2.95;1.40;;;21.20;60.70;;;;;;5035914;28;20228;-83
2023/08/30 06:06:21;;;;;;;1.10;1.10;;;21.20;60.60;;;;;;5036612;28;20307;-82
2023/08/30 06:08:48;;;;;;;1.20;1.20;;;21.20;60.50;;;;;;5036067;28;20200;-82
2023/08/30 06:11:16;;;;;;;1.60;1.50;;;21.10;60.40;;;;;;5036039;28;20238;-83
2023/08/30 06:13:43;;;;;;;1.85;1.38;;;21.30;60.60;;;;;;5036022;28;20547;-84
2023/08/30 06:16:11;;;;;;;2.00;1.80;;;21.30;60.60;;;;;;5036764;28;20655;-83
2023/08/30 06:18:38;;;;;;;1.40;1.30;;;21.30;60.50;;;;;;5036514;28;20219;-84
2023/08/30 06:21:06;;;;;;;1.50;1.40;;;21.30;60.40;;;;;;5019740;28;20226;-84
2023/08/30 06:23:34;;;;;;;1.98;1.38;;;21.30;60.30;;;;;;5035751;28;20203;-83
2023/08/30 06:26:02;;;;;;;1.20;1.20;;;21.40;60.20;;;;;;5035932;28;20269;-84
2023/08/30 06:28:30;;;;;;;1.88;1.40;;;21.40;60.20;;;;;;5019449;28;20232;-84
2023/08/30 06:30:58;;;;;;;1.58;1.40;;;21.40;60.10;;;;;;5035727;28;20219;-83
2023/08/30 06:33:26;;;;;;;1.50;1.40;;;21.40;60.00;;;;;;5019545;28;20192;-83
2023/08/30 06:35:54;;;;;;;2.47;1.90;;;21.50;60.00;;;;;;5035942;28;20211;-83
2023/08/30 06:38:22;;;;;;;1.63;1.48;;;21.50;60.00;;;;;;5035788;28;20290;-83
2023/08/30 06:40:49;;;;;;;1.98;1.75;;;21.50;60.00;;;;;;5035823;28;20216;-83
2023/08/30 06:43:16;;;;;;;2.08;1.55;;;21.50;60.00;;;;;;5036006;28;20204;-83
2023/08/30 06:45:43;;;;;;;1.38;1.35;;;21.50;60.00;;;;;;5036021;28;20266;-84
2023/08/30 06:48:10;;;;;;;1.73;1.63;;;21.50;60.00;;;;;;5037011;28;20262;-83
2023/08/30 06:50:38;;;;;;;1.50;1.40;;;21.50;60.00;;;;;;5036350;28;20243;-83
2023/08/30 06:53:06;;;;;;;2.60;1.50;;;21.50;60.00;;;;;;5035355;28;20266;-84
2023/08/30 06:55:35;;;;;;;2.85;1.58;;;21.60;60.00;;;;;;5035232;28;20196;-83
2023/08/30 06:58:03;;;;;;;1.60;1.50;;;21.60;59.90;;;;;;5035418;28;20192;-84
2023/08/30 07:00:30;;;;;;;1.70;1.60;;;21.60;59.90;;;;;;5035000;28;20216;-83
2023/08/30 07:02:57;;;;;;;1.63;1.52;;;21.60;59.90;;;;;;5035680;28;20199;-83
2023/08/30 07:05:24;;;;;;;1.63;1.52;;;21.70;59.90;;;;;;5034874;28;20204;-83
2023/08/30 07:07:53;;;;;;;1.90;1.80;;;21.60;59.70;;;;;;5035535;28;20288;-83
2023/08/30 07:10:20;;;;;;;2.25;1.83;;;21.60;59.70;;;;;;5035392;28;20196;-83
2023/08/30 07:12:48;;;;;;;1.77;1.67;;;21.70;59.70;;;;;;5036125;28;20635;-83
2023/08/30 07:15:17;;;;;;;1.63;1.52;;;21.70;59.70;;;;;;5035903;28;20227;-83
2023/08/30 07:17:44;;;;;;;1.63;1.52;;;21.70;59.70;;;;;;5035336;28;20559;-83
2023/08/30 07:20:12;;;;;;;1.80;1.70;;;21.70;59.70;;;;;;5036861;28;20220;-83
2023/08/30 07:22:40;;;;;;;1.67;1.58;;;21.70;59.70;;;;;;5035574;28;20655;-84
2023/08/30 07:25:10;;;;;;;2.10;1.50;;;21.70;59.70;;;;;;5019128;28;20199;-84
2023/08/30 07:27:37;;;;;;;1.70;1.60;;;21.70;59.70;;;;;;5035766;28;20592;-83
2023/08/30 07:30:05;;;;;;;2.13;2.03;;;21.70;59.60;;;;;;5034652;28;20211;-83
2023/08/30 07:32:33;;;;;;;1.63;1.52;;;21.70;59.60;;;;;;5034872;28;20211;-83
2023/08/30 07:35:00;;;;;;;1.77;1.67;;;21.80;59.60;;;;;;5034772;28;20214;-83
2023/08/30 07:37:26;;;;;;;1.42;1.33;;;21.80;59.60;;;;;;5034735;28;20661;-83
2023/08/30 07:39:54;;;;;;;1.67;1.58;;;21.70;59.50;;;;;;5035265;28;20200;-83
2023/08/30 07:42:22;;;;;;;1.73;1.63;;;21.80;59.50;;;;;;5034625;28;20235;-83
2023/08/30 07:44:50;;;;;;;1.52;1.42;;;21.70;59.40;;;;;;5039144;28;20200;-83
2023/08/30 07:47:17;;;;;;;1.70;1.60;;;21.80;59.40;;;;;;5040314;28;20275;-83
2023/08/30 07:49:44;;;;;;;1.73;1.63;;;21.80;59.30;;;;;;5037574;28;20262;-83
2023/08/30 07:52:12;;;;;;;1.80;1.70;;;21.80;59.30;;;;;;5034346;28;20230;-83
2023/08/30 07:54:40;;;;;;;1.65;1.55;;;21.90;59.40;;;;;;5034512;28;20239;-83
2023/08/30 07:57:07;;;;;;;1.73;1.63;;;21.80;59.30;;;;;;5034892;28;20673;-83
2023/08/30 07:59:36;;;;;;;1.67;1.58;;;21.90;59.30;;;;;;5035012;28;20222;-83
2023/08/30 08:02:03;;;;;;;1.92;1.83;;;21.90;59.30;;;;;;5035017;28;20273;-83
2023/08/30 08:04:30;;;;;;;1.58;1.48;;;21.90;59.30;;;;;;5036602;28;20234;-83
2023/08/30 08:06:57;;;;;;;1.60;1.50;;;21.90;59.20;;;;;;5035138;28;20220;-83
2023/08/30 08:09:24;;;;;;;1.80;1.70;;;21.90;59.30;;;;;;5034941;28;20192;-84
2023/08/30 08:11:51;;;;;;;1.92;1.60;;;21.90;59.20;;;;;;5018644;28;20286;-84
2023/08/30 08:14:19;;;;;;;1.95;1.70;;;21.90;59.30;;;;;;5034621;28;20702;-84
2023/08/30 08:16:50;;;;;;;1.90;1.70;;;21.90;59.20;;;;;;5018280;28;20223;-84
2023/08/30 08:19:18;;;;;;;1.52;1.42;;;21.90;59.20;;;;;;5033907;28;20212;-84
2023/08/30 08:21:45;;;;;;;1.85;1.67;;;21.90;59.20;;;;;;5018978;28;20220;-83
2023/08/30 08:24:12;;;;;;;1.85;1.70;;;21.90;59.10;;;;;;5034363;28;20200;-83
2023/08/30 08:26:39;;;;;;;1.55;1.45;;;22.00;59.10;;;;;;5034709;28;20592;-83
2023/08/30 08:29:06;;;;;;;1.70;1.60;;;22.00;59.20;;;;;;5045417;28;20184;-84
2023/08/30 08:31:34;;;;;;;1.80;1.70;;;22.00;59.10;;;;;;5034119;28;20242;-83
2023/08/30 08:34:09;;;;;;;1.67;1.58;;;22.00;59.10;;;;;;5033886;28;20202;-83
2023/08/30 08:36:36;;;;;;;1.75;1.50;;;22.00;59.10;;;;;;5034333;28;20227;-83
2023/08/30 08:39:04;;;;;;;2.00;1.70;;;22.10;59.10;;;;;;5033882;28;20200;-83
2023/08/30 08:41:36;;;;;;;1.65;1.55;;;22.10;59.10;;;;;;5033121;28;20285;-83
2023/08/30 08:44:04;;;;;;;1.67;1.58;;;22.10;59.10;;;;;;5033413;28;20700;-82
2023/08/30 08:46:32;;;;;;;1.48;1.40;;;22.10;58.90;;;;;;5033634;28;20367;-84
2023/08/30 08:48:59;;;;;;;1.67;1.50;;;22.20;59.00;;;;;;5017029;28;20629;-84
2023/08/30 08:51:27;;;;;;;1.70;1.60;;;22.20;58.90;;;;;;5033250;28;20227;-84
2023/08/30 08:53:55;;;;;;;1.58;1.48;;;22.20;58.80;;;;;;5033424;28;20200;-84
2023/08/30 08:56:22;;;;;;;1.70;1.60;;;22.30;58.70;;;;;;5033291;28;20192;-83
2023/08/30 08:58:50;;;;;;;1.60;1.50;;;22.30;58.60;;;;;;5034705;28;20200;-84
2023/08/30 09:01:17;;;;;;;1.65;1.55;;;22.40;58.60;;;;;;5033286;28;20251;-83
2023/08/30 09:03:44;;;;;;;1.80;1.70;;;22.40;58.40;;;;;;5033025;28;20215;-84
2023/08/30 09:06:11;;;;;;;1.88;1.70;;;22.50;58.40;;;;;;5032991;28;20202;-84
2023/08/30 09:08:40;;;;;;;1.77;1.67;;;22.50;58.20;;;;;;5016983;28;20224;-83
2023/08/30 09:11:07;;;;;;;1.58;1.48;;;22.60;58.00;;;;;;5033072;28;20216;-84
2023/08/30 09:13:34;;;;;;;1.38;1.30;;;22.70;57.90;;;;;;5032796;28;20655;-83
2023/08/30 09:16:02;;;;;;;1.60;1.50;;;22.70;57.70;;;;;;5016956;28;20235;-83
2023/08/30 09:18:29;;;;;;;1.60;1.50;;;22.90;57.60;;;;;;5032621;28;20192;-83
2023/08/30 09:21:06;;;;;;;1.67;1.58;;;22.80;57.40;;;;;;5032720;28;20223;-83
2023/08/30 09:23:33;;;;;;;1.67;1.58;;;23.00;57.40;;;;;;5033579;28;20199;-84
2023/08/30 09:26:02;;;;;;;1.70;1.60;;;23.00;57.40;;;;;;5033348;28;20215;-84
2023/08/30 09:28:31;;;;;;;1.50;1.40;;;23.00;57.20;;;;;;5033235;28;20224;-84
2023/08/30 09:30:59;;;;;;;1.50;1.40;;;23.00;57.00;;;;;;5037333;28;20302;-84
2023/08/30 09:33:32;;;;;;;1.63;1.52;;;23.10;57.00;;;;;;5036957;28;20203;-84
2023/08/30 09:36:00;;;;;;;1.27;1.27;;;23.10;57.10;;;;;;5036988;28;20202;-84
2023/08/30 09:38:27;;;;;;;1.40;1.30;;;23.30;57.10;;;;;;5036852;28;20613;-84
2023/08/30 09:41:05;;;;;;;1.60;1.45;;;23.30;56.60;;;;;;5036657;28;20223;-84
2023/08/30 09:43:33;;;;;;;1.48;1.38;;;23.40;56.70;;;;;;5037758;28;20199;-84
2023/08/30 09:46:00;;;;;;;1.50;1.40;;;23.40;56.30;;;;;;5040259;28;20192;-84
2023/08/30 09:48:29;;;;;;;2.25;1.58;;;23.50;56.10;;;;;;5053828;28;20330;-84
2023/08/30 09:50:56;;;;;;;1.70;1.60;;;23.60;56.10;;;;;;5055629;28;20303;-84
2023/08/30 09:53:23;;;;;;;1.50;1.40;;;23.70;56.00;;;;;;5053142;28;20204;-84
2023/08/30 09:55:50;;;;;;;1.50;1.40;;;23.80;55.60;;;;;;5027696;28;20717;-84
2023/08/30 09:58:19;;;;;;;1.60;1.50;;;23.90;55.40;;;;;;5036667;28;20199;-84
2023/08/30 10:00:46;;;;;;;1.50;1.40;;;24.00;55.20;;;;;;5037536;28;20219;-84
2023/08/30 10:03:13;;;;;;;1.20;1.20;;;24.00;55.00;;;;;;5041325;28;20200;-84
2023/08/30 10:05:40;;;;;;;1.48;1.38;;;24.10;54.90;;;;;;5038944;28;20250;-84
2023/08/30 10:08:07;;;;;;;1.55;1.45;;;24.20;54.80;;;;;;5036201;28;20232;-84
2023/08/30 10:10:35;;;;;;;2.20;1.40;;;24.20;54.60;;;;;;5035747;28;20286;-84
2023/08/30 10:13:03;;;;;;;1.48;1.38;;;24.20;54.50;;;;;;5036056;28;20290;-84
2023/08/30 10:15:32;;;;;;;1.27;1.23;;;24.20;54.30;;;;;;5036049;28;20200;-84
2023/08/30 10:17:59;;;;;;;1.40;1.30;;;24.30;54.30;;;;;;5036309;28;20275;-84
2023/08/30 10:20:27;;;;;;;1.55;1.45;;;24.30;54.20;;;;;;5019506;28;20709;-84
2023/08/30 10:22:54;;;;;;;1.45;1.35;;;24.40;54.20;;;;;;5035492;28;20226;-84
2023/08/30 10:25:24;;;;;;;1.50;1.40;;;24.40;54.00;;;;;;5035933;28;20646;-84
2023/08/30 10:27:51;;;;;;;1.50;1.40;;;24.40;53.90;;;;;;5035793;28;20231;-84
2023/08/30 10:30:19;;;;;;;1.60;1.50;;;24.50;53.80;;;;;;5035919;28;20269;-84
2023/08/30 10:32:48;;;;;;;1.60;1.50;;;24.50;53.80;;;;;;5036014;28;20297;-84
2023/08/30 10:35:15;;;;;;;1.30;1.20;;;24.50;53.80;;;;;;5036024;28;20204;-84
2023/08/30 10:37:43;;;;;;;1.55;1.45;;;24.50;53.80;;;;;;5039265;28;20220;-84
2023/08/30 10:40:10;;;;;;;1.50;1.40;;;24.50;53.80;;;;;;5039436;28;20199;-84
2023/08/30 10:42:37;;;;;;;1.40;1.30;;;24.50;53.70;;;;;;5039771;28;20208;-84
2023/08/30 10:45:06;;;;;;;1.25;1.25;;;24.50;53.70;;;;;;5040119;28;20200;-84
2023/08/30 10:47:35;;;;;;;1.40;1.30;;;24.60;53.80;;;;;;5036773;28;20314;-84
2023/08/30 10:50:07;;;;;;;1.60;1.50;;;24.60;53.70;;;;;;5039556;28;20654;-84
2023/08/30 10:52:34;;;;;;;1.33;1.30;;;24.60;53.80;;;;;;5040047;28;20279;-84
2023/08/30 10:55:08;;;;;;;1.48;1.38;;;24.60;53.70;;;;;;5035476;28;20566;-84
2023/08/30 10:57:35;;;;;;;1.50;1.40;;;24.60;53.80;;;;;;5035435;28;20286;-83
2023/08/30 11:00:09;;;;;;;1.50;1.40;;;24.60;53.70;;;;;;5035609;28;20654;-86
2023/08/30 11:02:37;;;;;;;1.13;1.13;;;24.60;53.80;;;;;;5035629;28;20203;-84
2023/08/30 11:05:07;;;;;;;1.40;1.30;;;24.50;53.80;;;;;;5036457;28;20674;-84
2023/08/30 11:07:34;;;;;;;1.45;1.35;;;24.50;54.10;;;;;;5035512;28;20255;-84
2023/08/30 11:10:01;;;;;;;1.48;1.38;;;24.40;54.20;;;;;;5035193;28;20253;-84
2023/08/30 11:12:29;;;;;;;1.20;1.20;;;24.40;54.30;;;;;;5035194;28;20230;-83
2023/08/30 11:14:57;;;;;;;1.40;1.30;;;24.40;54.40;;;;;;5034883;28;20200;-84
2023/08/30 11:17:24;;;;;;;1.60;1.50;;;24.40;54.30;;;;;;5035285;28;20604;-84
2023/08/30 11:19:51;;;;;;;1.40;1.30;;;24.40;54.40;;;;;;5035705;28;20192;-84
2023/08/30 11:22:20;;;;;;;1.30;1.20;;;24.40;54.40;;;;;;5019552;28;20223;-84
2023/08/30 11:24:49;;;;;;;1.25;1.20;;;24.40;54.30;;;;;;5034488;28;20196;-84
2023/08/30 11:27:17;;;;;;;1.60;1.50;;;24.40;54.30;;;;;;5035237;28;20219;-84
2023/08/30 11:29:45;;;;;;;1.15;1.13;;;24.40;54.40;;;;;;5034686;28;20203;-84
2023/08/30 11:32:12;;;;;;;1.35;1.27;;;24.40;54.30;;;;;;5034657;28;20215;-84
2023/08/30 11:34:39;;;;;;;1.40;1.30;;;24.40;54.40;;;;;;5019563;28;20569;-84
2023/08/30 11:37:06;;;;;;;1.50;1.40;;;24.40;54.30;;;;;;5036169;28;20195;-83
2023/08/30 11:39:35;;;;;;;1.48;1.20;;;24.40;54.30;;;;;;5035659;28;20199;-84
2023/08/30 11:42:06;;;;;;;1.45;1.30;;;24.40;54.30;;;;;;5035600;28;20318;-84
2023/08/30 11:44:33;;;;;;;1.65;1.40;;;24.50;54.30;;;;;;5035068;28;20187;-83
2023/08/30 11:47:00;;;;;;;1.40;1.30;;;24.40;54.10;;;;;;5035723;28;20208;-84
2023/08/30 11:49:28;;;;;;;1.85;1.20;;;24.50;54.20;;;;;;5034107;28;20729;-84
2023/08/30 11:51:58;;;;;;;1.25;1.23;;;24.50;54.20;;;;;;5034334;28;20219;-84
2023/08/30 11:54:25;;;;;;;1.38;1.30;;;24.50;54.20;;;;;;5034266;28;20206;-84
2023/08/30 11:56:53;;;;;;;1.20;1.20;;;24.50;54.20;;;;;;5034519;28;20203;-84
2023/08/30 11:59:22;;;;;;;1.30;1.30;;;24.50;54.30;;;;;;5034767;28;20551;-84
2023/08/30 12:01:53;;;;;;;1.45;1.35;;;24.50;54.20;;;;;;5034643;28;20219;-84
2023/08/30 12:04:20;;;;;;;1.25;1.23;;;24.50;54.30;;;;;;5045143;28;20200;-84
2023/08/30 12:06:52;;;;;;;1.42;1.33;;;24.50;54.40;;;;;;5034372;28;20254;-84
2023/08/30 12:09:21;;;;;;;1.40;1.30;;;24.40;54.30;;;;;;5034817;28;20242;-84
2023/08/30 12:11:49;;;;;;;1.60;1.50;;;24.40;54.20;;;;;;5033739;28;20231;-84
2023/08/30 12:14:18;;;;;;;1.30;1.30;;;24.40;54.40;;;;;;5034502;28;20211;-84
2023/08/30 12:16:47;;;;;;;1.67;1.58;;;24.30;54.40;;;;;;5033779;28;20658;-84
2023/08/30 12:19:15;;;;;;;1.20;1.20;;;24.30;54.40;;;;;;5024783;28;20195;-84
2023/08/30 12:21:43;;;;;;;1.42;1.35;;;24.30;54.50;;;;;;5034163;28;20220;-84
2023/08/30 12:24:10;;;;;;;1.40;1.30;;;24.30;54.50;;;;;;5033914;28;20269;-84
2023/08/30 12:26:38;;;;;;;2.25;1.50;;;24.20;54.40;;;;;;5034103;28;20227;-84
2023/08/30 12:29:06;;;;;;;1.40;1.30;;;24.20;54.80;;;;;;5033813;28;20251;-84
2023/08/30 12:31:35;;;;;;;2.08;1.40;;;24.20;54.90;;;;;;5017965;28;20686;-84
2023/08/30 12:34:02;;;;;;;1.70;1.60;;;24.10;55.00;;;;;;5033703;28;20254;-84
2023/08/30 12:36:29;;;;;;;1.42;1.33;;;24.10;55.00;;;;;;5033584;28;20208;-84
2023/08/30 12:38:56;;;;;;;1.90;1.70;;;24.10;55.00;;;;;;5034387;28;20192;-84
2023/08/30 12:41:23;;;;;;;1.73;1.48;;;24.00;54.90;;;;;;5035433;28;20580;-83
2023/08/30 12:43:51;;;;;;;3.47;1.50;;;24.00;55.00;;;;;;5033461;28;20211;-84
2023/08/30 12:46:18;;;;;;;1.63;1.48;;;24.00;55.20;;;;;;5017548;28;20200;-84
2023/08/30 12:48:46;;;;;;;1.70;1.60;;;24.00;55.10;;;;;;5033215;28;20672;-82
2023/08/30 12:51:14;;;;;;;3.05;1.50;;;24.00;55.10;;;;;;5033328;28;20212;-82